sensor_id;sensor_type;location;lat;lon;timestamp;P1;durP1;ratioP1;P2;durP2;ratioP2
48516;SDS011;34310;51.904;4.256;2022-12-16T00:01:33;4.20;;;3.08;;
48516;SDS011;34310;51.904;4.256;2022-12-16T00:04:01;3.90;;;3.00;;
48516;SDS011;34310;51.904;4.256;2022-12-16T00:06:29;4.40;;;3.10;;
48516;SDS011;34310;51.904;4.256;2022-12-16T00:09:01;4.07;;;3.05;;
48516;SDS011;34310;51.904;4.256;2022-12-16T00:11:29;5.65;;;3.25;;
48516;SDS011;34310;51.904;4.256;2022-12-16T00:13:57;5.03;;;2.83;;
48516;SDS011;34310;51.904;4.256;2022-12-16T00:16:25;4.35;;;2.83;;
48516;SDS011;34310;51.904;4.256;2022-12-16T00:18:52;4.28;;;3.00;;
48516;SDS011;34310;51.904;4.256;2022-12-16T00:21:19;3.85;;;2.60;;
48516;SDS011;34310;51.904;4.256;2022-12-16T00:23:47;3.95;;;2.80;;
48516;SDS011;34310;51.904;4.256;2022-12-16T00:26:14;5.25;;;2.50;;
48516;SDS011;34310;51.904;4.256;2022-12-16T00:28:41;3.88;;;2.70;;
48516;SDS011;34310;51.904;4.256;2022-12-16T00:31:09;3.45;;;2.22;;
48516;SDS011;34310;51.904;4.256;2022-12-16T00:33:36;3.15;;;2.47;;
48516;SDS011;34310;51.904;4.256;2022-12-16T00:36:04;3.70;;;2.42;;
48516;SDS011;34310;51.904;4.256;2022-12-16T00:38:33;3.20;;;2.20;;
48516;SDS011;34310;51.904;4.256;2022-12-16T00:41:00;2.70;;;2.28;;
48516;SDS011;34310;51.904;4.256;2022-12-16T00:43:28;2.58;;;2.15;;
48516;SDS011;34310;51.904;4.256;2022-12-16T00:45:56;4.50;;;2.15;;
48516;SDS011;34310;51.904;4.256;2022-12-16T00:48:23;3.00;;;2.20;;
48516;SDS011;34310;51.904;4.256;2022-12-16T00:50:51;3.25;;;2.33;;
48516;SDS011;34310;51.904;4.256;2022-12-16T00:53:21;2.85;;;1.90;;
48516;SDS011;34310;51.904;4.256;2022-12-16T00:55:49;2.15;;;1.77;;
48516;SDS011;34310;51.904;4.256;2022-12-16T00:58:17;2.40;;;1.80;;
48516;SDS011;34310;51.904;4.256;2022-12-16T01:00:44;2.35;;;1.83;;
48516;SDS011;34310;51.904;4.256;2022-12-16T01:03:11;2.15;;;1.80;;
48516;SDS011;34310;51.904;4.256;2022-12-16T01:05:46;2.40;;;1.80;;
48516;SDS011;34310;51.904;4.256;2022-12-16T01:08:13;2.17;;;1.80;;
48516;SDS011;34310;51.904;4.256;2022-12-16T01:10:41;2.63;;;1.67;;
48516;SDS011;34310;51.904;4.256;2022-12-16T01:13:08;2.40;;;1.65;;
48516;SDS011;34310;51.904;4.256;2022-12-16T01:15:36;2.85;;;1.77;;
48516;SDS011;34310;51.904;4.256;2022-12-16T01:18:03;2.25;;;1.75;;
48516;SDS011;34310;51.904;4.256;2022-12-16T01:20:31;2.67;;;1.80;;
48516;SDS011;34310;51.904;4.256;2022-12-16T01:22:59;1.88;;;1.52;;
48516;SDS011;34310;51.904;4.256;2022-12-16T01:25:26;1.90;;;1.27;;
48516;SDS011;34310;51.904;4.256;2022-12-16T01:27:54;1.73;;;1.48;;
48516;SDS011;34310;51.904;4.256;2022-12-16T01:30:21;2.55;;;1.50;;
48516;SDS011;34310;51.904;4.256;2022-12-16T01:32:49;2.65;;;1.63;;
48516;SDS011;34310;51.904;4.256;2022-12-16T01:35:17;2.45;;;1.45;;
48516;SDS011;34310;51.904;4.256;2022-12-16T01:38:04;2.92;;;1.52;;
48516;SDS011;34310;51.904;4.256;2022-12-16T01:40:31;3.33;;;1.70;;
48516;SDS011;34310;51.904;4.256;2022-12-16T01:42:59;2.08;;;1.60;;
48516;SDS011;34310;51.904;4.256;2022-12-16T01:48:07;1.63;;;1.23;;
48516;SDS011;34310;51.904;4.256;2022-12-16T01:51:31;2.75;;;1.30;;
48516;SDS011;34310;51.904;4.256;2022-12-16T01:56:38;2.67;;;1.27;;
48516;SDS011;34310;51.904;4.256;2022-12-16T01:59:13;1.70;;;1.30;;
48516;SDS011;34310;51.904;4.256;2022-12-16T02:01:44;2.40;;;1.33;;
48516;SDS011;34310;51.904;4.256;2022-12-16T02:04:11;2.35;;;1.30;;
48516;SDS011;34310;51.904;4.256;2022-12-16T02:06:38;2.03;;;1.15;;
48516;SDS011;34310;51.904;4.256;2022-12-16T02:09:06;1.50;;;1.17;;
48516;SDS011;34310;51.904;4.256;2022-12-16T02:23:49;2.13;;;1.30;;
48516;SDS011;34310;51.904;4.256;2022-12-16T02:26:28;2.33;;;1.10;;
48516;SDS011;34310;51.904;4.256;2022-12-16T02:32:08;1.60;;;1.10;;
48516;SDS011;34310;51.904;4.256;2022-12-16T02:35:06;1.33;;;1.00;;
48516;SDS011;34310;51.904;4.256;2022-12-16T02:43:01;1.63;;;0.93;;
48516;SDS011;34310;51.904;4.256;2022-12-16T02:45:36;2.17;;;1.13;;
48516;SDS011;34310;51.904;4.256;2022-12-16T02:48:05;1.70;;;0.90;;
48516;SDS011;34310;51.904;4.256;2022-12-16T02:50:34;1.55;;;0.90;;
48516;SDS011;34310;51.904;4.256;2022-12-16T02:53:13;1.15;;;0.90;;
48516;SDS011;34310;51.904;4.256;2022-12-16T03:00:55;1.33;;;0.88;;
48516;SDS011;34310;51.904;4.256;2022-12-16T03:03:45;1.00;;;0.90;;
48516;SDS011;34310;51.904;4.256;2022-12-16T03:06:23;1.10;;;0.90;;
48516;SDS011;34310;51.904;4.256;2022-12-16T03:08:54;1.25;;;0.90;;
48516;SDS011;34310;51.904;4.256;2022-12-16T03:11:25;1.58;;;1.02;;
48516;SDS011;34310;51.904;4.256;2022-12-16T03:13:55;1.20;;;0.88;;
48516;SDS011;34310;51.904;4.256;2022-12-16T03:16:26;1.70;;;0.90;;
48516;SDS011;34310;51.904;4.256;2022-12-16T03:18:58;1.63;;;0.93;;
48516;SDS011;34310;51.904;4.256;2022-12-16T03:21:31;2.28;;;0.80;;
48516;SDS011;34310;51.904;4.256;2022-12-16T03:24:23;1.10;;;0.70;;
48516;SDS011;34310;51.904;4.256;2022-12-16T03:30:22;1.00;;;0.80;;
48516;SDS011;34310;51.904;4.256;2022-12-16T03:32:47;1.27;;;0.80;;
48516;SDS011;34310;51.904;4.256;2022-12-16T03:38:06;1.10;;;0.80;;
48516;SDS011;34310;51.904;4.256;2022-12-16T03:40:36;1.75;;;0.80;;
48516;SDS011;34310;51.904;4.256;2022-12-16T03:43:06;1.52;;;0.80;;
48516;SDS011;34310;51.904;4.256;2022-12-16T03:45:36;1.27;;;0.80;;
48516;SDS011;34310;51.904;4.256;2022-12-16T03:48:06;0.93;;;0.70;;
48516;SDS011;34310;51.904;4.256;2022-12-16T03:50:35;1.08;;;0.70;;
48516;SDS011;34310;51.904;4.256;2022-12-16T03:53:03;2.05;;;0.80;;
48516;SDS011;34310;51.904;4.256;2022-12-16T03:55:31;1.00;;;0.73;;
48516;SDS011;34310;51.904;4.256;2022-12-16T03:57:58;1.92;;;0.68;;
48516;SDS011;34310;51.904;4.256;2022-12-16T04:00:26;1.48;;;0.85;;
48516;SDS011;34310;51.904;4.256;2022-12-16T04:02:53;1.30;;;0.65;;
48516;SDS011;34310;51.904;4.256;2022-12-16T04:05:20;1.55;;;0.85;;
48516;SDS011;34310;51.904;4.256;2022-12-16T04:07:48;1.73;;;0.80;;
48516;SDS011;34310;51.904;4.256;2022-12-16T04:10:16;1.35;;;0.73;;
48516;SDS011;34310;51.904;4.256;2022-12-16T04:13:03;1.02;;;0.70;;
48516;SDS011;34310;51.904;4.256;2022-12-16T04:15:49;1.15;;;0.75;;
48516;SDS011;34310;51.904;4.256;2022-12-16T04:18:39;1.25;;;0.60;;
48516;SDS011;34310;51.904;4.256;2022-12-16T04:21:26;1.25;;;0.60;;
48516;SDS011;34310;51.904;4.256;2022-12-16T04:24:12;1.50;;;0.90;;
48516;SDS011;34310;51.904;4.256;2022-12-16T04:26:47;2.55;;;0.90;;
48516;SDS011;34310;51.904;4.256;2022-12-16T04:29:40;1.48;;;0.80;;
48516;SDS011;34310;51.904;4.256;2022-12-16T04:32:27;0.65;;;0.52;;
48516;SDS011;34310;51.904;4.256;2022-12-16T04:35:15;1.33;;;0.80;;
48516;SDS011;34310;51.904;4.256;2022-12-16T04:38:01;1.73;;;0.75;;
48516;SDS011;34310;51.904;4.256;2022-12-16T04:41:00;1.42;;;0.80;;
48516;SDS011;34310;51.904;4.256;2022-12-16T04:43:46;1.02;;;0.63;;
48516;SDS011;34310;51.904;4.256;2022-12-16T04:46:32;0.80;;;0.70;;
48516;SDS011;34310;51.904;4.256;2022-12-16T04:49:18;0.80;;;0.70;;
48516;SDS011;34310;51.904;4.256;2022-12-16T04:52:04;2.65;;;0.70;;
48516;SDS011;34310;51.904;4.256;2022-12-16T04:54:50;0.75;;;0.70;;
48516;SDS011;34310;51.904;4.256;2022-12-16T04:57:36;1.35;;;0.70;;
48516;SDS011;34310;51.904;4.256;2022-12-16T05:00:22;1.38;;;0.80;;
48516;SDS011;34310;51.904;4.256;2022-12-16T05:03:09;0.90;;;0.70;;
48516;SDS011;34310;51.904;4.256;2022-12-16T05:05:55;1.25;;;0.90;;
48516;SDS011;34310;51.904;4.256;2022-12-16T05:08:40;1.38;;;0.90;;
48516;SDS011;34310;51.904;4.256;2022-12-16T05:11:26;1.50;;;0.70;;
48516;SDS011;34310;51.904;4.256;2022-12-16T05:14:12;1.15;;;0.60;;
48516;SDS011;34310;51.904;4.256;2022-12-16T05:16:58;1.38;;;0.70;;
48516;SDS011;34310;51.904;4.256;2022-12-16T05:19:44;1.05;;;0.70;;
48516;SDS011;34310;51.904;4.256;2022-12-16T05:22:30;1.25;;;0.80;;
48516;SDS011;34310;51.904;4.256;2022-12-16T05:25:16;1.30;;;0.80;;
48516;SDS011;34310;51.904;4.256;2022-12-16T05:28:02;1.15;;;0.70;;
48516;SDS011;34310;51.904;4.256;2022-12-16T05:30:48;0.65;;;0.55;;
48516;SDS011;34310;51.904;4.256;2022-12-16T05:33:34;1.75;;;0.70;;
48516;SDS011;34310;51.904;4.256;2022-12-16T05:36:19;0.93;;;0.60;;
48516;SDS011;34310;51.904;4.256;2022-12-16T05:39:05;1.27;;;0.85;;
48516;SDS011;34310;51.904;4.256;2022-12-16T05:41:51;0.88;;;0.70;;
48516;SDS011;34310;51.904;4.256;2022-12-16T05:44:37;0.90;;;0.70;;
48516;SDS011;34310;51.904;4.256;2022-12-16T05:47:24;1.00;;;0.90;;
48516;SDS011;34310;51.904;4.256;2022-12-16T05:50:10;1.02;;;0.80;;
48516;SDS011;34310;51.904;4.256;2022-12-16T05:52:57;1.25;;;0.80;;
48516;SDS011;34310;51.904;4.256;2022-12-16T05:55:42;1.52;;;1.10;;
48516;SDS011;34310;51.904;4.256;2022-12-16T05:58:28;1.65;;;0.90;;
48516;SDS011;34310;51.904;4.256;2022-12-16T06:01:14;1.65;;;0.88;;
48516;SDS011;34310;51.904;4.256;2022-12-16T06:04:01;1.70;;;0.90;;
48516;SDS011;34310;51.904;4.256;2022-12-16T06:06:47;1.40;;;0.90;;
48516;SDS011;34310;51.904;4.256;2022-12-16T06:09:32;1.45;;;1.15;;
48516;SDS011;34310;51.904;4.256;2022-12-16T06:12:22;2.05;;;1.10;;
48516;SDS011;34310;51.904;4.256;2022-12-16T06:15:08;1.67;;;1.40;;
48516;SDS011;34310;51.904;4.256;2022-12-16T06:17:55;1.55;;;1.20;;
48516;SDS011;34310;51.904;4.256;2022-12-16T06:20:40;1.92;;;1.20;;
48516;SDS011;34310;51.904;4.256;2022-12-16T06:23:26;1.52;;;1.30;;
48516;SDS011;34310;51.904;4.256;2022-12-16T06:26:12;1.67;;;1.20;;
48516;SDS011;34310;51.904;4.256;2022-12-16T06:28:59;1.50;;;1.40;;
48516;SDS011;34310;51.904;4.256;2022-12-16T06:31:44;4.47;;;1.42;;
48516;SDS011;34310;51.904;4.256;2022-12-16T06:34:30;1.98;;;1.63;;
48516;SDS011;34310;51.904;4.256;2022-12-16T06:37:16;2.20;;;1.70;;
48516;SDS011;34310;51.904;4.256;2022-12-16T06:40:01;2.53;;;1.80;;
48516;SDS011;34310;51.904;4.256;2022-12-16T06:42:48;2.45;;;1.90;;
48516;SDS011;34310;51.904;4.256;2022-12-16T06:45:33;2.20;;;1.58;;
48516;SDS011;34310;51.904;4.256;2022-12-16T06:48:19;2.50;;;1.80;;
48516;SDS011;34310;51.904;4.256;2022-12-16T06:51:05;2.80;;;1.83;;
48516;SDS011;34310;51.904;4.256;2022-12-16T06:53:51;2.42;;;1.77;;
48516;SDS011;34310;51.904;4.256;2022-12-16T06:56:37;2.88;;;1.92;;
48516;SDS011;34310;51.904;4.256;2022-12-16T06:59:23;2.28;;;1.60;;
48516;SDS011;34310;51.904;4.256;2022-12-16T07:02:12;3.55;;;1.75;;
48516;SDS011;34310;51.904;4.256;2022-12-16T07:05:02;2.45;;;1.88;;
48516;SDS011;34310;51.904;4.256;2022-12-16T07:07:49;2.05;;;1.60;;
48516;SDS011;34310;51.904;4.256;2022-12-16T07:10:36;2.85;;;2.00;;
48516;SDS011;34310;51.904;4.256;2022-12-16T07:13:38;2.72;;;2.00;;
48516;SDS011;34310;51.904;4.256;2022-12-16T07:16:24;2.88;;;2.03;;
48516;SDS011;34310;51.904;4.256;2022-12-16T07:19:10;3.03;;;2.08;;
48516;SDS011;34310;51.904;4.256;2022-12-16T07:21:56;3.08;;;2.15;;
48516;SDS011;34310;51.904;4.256;2022-12-16T07:24:42;3.25;;;2.08;;
48516;SDS011;34310;51.904;4.256;2022-12-16T07:27:28;3.00;;;2.33;;
48516;SDS011;34310;51.904;4.256;2022-12-16T07:30:14;2.38;;;2.17;;
48516;SDS011;34310;51.904;4.256;2022-12-16T07:33:00;2.38;;;2.10;;
48516;SDS011;34310;51.904;4.256;2022-12-16T07:35:46;4.25;;;2.22;;
48516;SDS011;34310;51.904;4.256;2022-12-16T07:38:31;4.88;;;2.75;;
48516;SDS011;34310;51.904;4.256;2022-12-16T07:41:17;3.63;;;2.63;;
48516;SDS011;34310;51.904;4.256;2022-12-16T07:44:03;5.25;;;2.70;;
48516;SDS011;34310;51.904;4.256;2022-12-16T07:46:49;3.80;;;2.63;;
48516;SDS011;34310;51.904;4.256;2022-12-16T07:49:34;2.92;;;2.00;;
48516;SDS011;34310;51.904;4.256;2022-12-16T07:52:21;3.63;;;2.08;;
48516;SDS011;34310;51.904;4.256;2022-12-16T07:55:07;4.25;;;2.28;;
48516;SDS011;34310;51.904;4.256;2022-12-16T07:58:13;4.03;;;2.33;;
48516;SDS011;34310;51.904;4.256;2022-12-16T08:00:59;3.67;;;2.35;;
48516;SDS011;34310;51.904;4.256;2022-12-16T08:03:45;9.98;;;2.45;;
48516;SDS011;34310;51.904;4.256;2022-12-16T10:48:03;2.75;;;2.00;;
48516;SDS011;34310;51.904;4.256;2022-12-16T10:50:49;3.63;;;1.70;;
48516;SDS011;34310;51.904;4.256;2022-12-16T10:53:35;3.97;;;2.00;;
48516;SDS011;34310;51.904;4.256;2022-12-16T10:59:18;4.25;;;1.60;;
48516;SDS011;34310;51.904;4.256;2022-12-16T11:02:09;4.32;;;1.67;;
48516;SDS011;34310;51.904;4.256;2022-12-16T11:05:20;4.50;;;1.48;;
48516;SDS011;34310;51.904;4.256;2022-12-16T11:08:27;7.38;;;1.80;;
48516;SDS011;34310;51.904;4.256;2022-12-16T11:11:25;3.47;;;1.83;;
48516;SDS011;34310;51.904;4.256;2022-12-16T11:14:26;4.60;;;1.63;;
48516;SDS011;34310;51.904;4.256;2022-12-16T11:17:34;6.05;;;1.30;;
48516;SDS011;34310;51.904;4.256;2022-12-16T11:20:22;4.07;;;1.70;;
48516;SDS011;34310;51.904;4.256;2022-12-16T11:23:20;2.85;;;1.42;;
48516;SDS011;34310;51.904;4.256;2022-12-16T11:26:09;6.32;;;1.70;;
48516;SDS011;34310;51.904;4.256;2022-12-16T11:32:00;5.10;;;1.30;;
48516;SDS011;34310;51.904;4.256;2022-12-16T11:35:00;3.50;;;1.42;;
48516;SDS011;34310;51.904;4.256;2022-12-16T11:37:49;6.68;;;1.42;;
48516;SDS011;34310;51.904;4.256;2022-12-16T11:40:38;3.83;;;1.30;;
48516;SDS011;34310;51.904;4.256;2022-12-16T11:43:25;1.95;;;1.52;;
48516;SDS011;34310;51.904;4.256;2022-12-16T11:46:17;1.58;;;1.38;;
48516;SDS011;34310;51.904;4.256;2022-12-16T11:49:19;3.15;;;1.38;;
48516;SDS011;34310;51.904;4.256;2022-12-16T11:52:16;2.92;;;1.38;;
48516;SDS011;34310;51.904;4.256;2022-12-16T11:58:32;4.47;;;1.33;;
48516;SDS011;34310;51.904;4.256;2022-12-16T12:04:20;2.55;;;1.33;;
48516;SDS011;34310;51.904;4.256;2022-12-16T12:10:20;5.10;;;1.45;;
48516;SDS011;34310;51.904;4.256;2022-12-16T12:13:27;3.45;;;1.30;;
48516;SDS011;34310;51.904;4.256;2022-12-16T12:16:38;2.17;;;1.20;;
48516;SDS011;34310;51.904;4.256;2022-12-16T12:19:37;1.83;;;1.27;;
48516;SDS011;34310;51.904;4.256;2022-12-16T12:22:36;4.18;;;1.55;;
48516;SDS011;34310;51.904;4.256;2022-12-16T12:25:58;1.58;;;1.30;;
48516;SDS011;34310;51.904;4.256;2022-12-16T12:28:58;4.37;;;1.20;;
48516;SDS011;34310;51.904;4.256;2022-12-16T12:31:56;7.75;;;1.40;;
48516;SDS011;34310;51.904;4.256;2022-12-16T12:37:39;4.15;;;1.20;;
48516;SDS011;34310;51.904;4.256;2022-12-16T12:40:40;4.25;;;1.20;;
48516;SDS011;34310;51.904;4.256;2022-12-16T12:58:49;2.63;;;1.30;;
48516;SDS011;34310;51.904;4.256;2022-12-16T13:01:39;2.90;;;1.20;;
48516;SDS011;34310;51.904;4.256;2022-12-16T13:04:30;4.82;;;1.30;;
48516;SDS011;34310;51.904;4.256;2022-12-16T13:07:18;2.88;;;0.95;;
48516;SDS011;34310;51.904;4.256;2022-12-16T13:10:11;6.00;;;1.20;;
48516;SDS011;34310;51.904;4.256;2022-12-16T13:13:37;3.55;;;1.30;;
48516;SDS011;34310;51.904;4.256;2022-12-16T13:19:39;3.65;;;1.33;;
48516;SDS011;34310;51.904;4.256;2022-12-16T13:22:35;7.10;;;1.55;;
48516;SDS011;34310;51.904;4.256;2022-12-16T13:26:04;6.65;;;1.80;;
48516;SDS011;34310;51.904;4.256;2022-12-16T13:28:39;8.20;;;1.95;;
48516;SDS011;34310;51.904;4.256;2022-12-16T13:31:27;5.47;;;1.63;;
48516;SDS011;34310;51.904;4.256;2022-12-16T13:37:00;6.07;;;1.55;;
48516;SDS011;34310;51.904;4.256;2022-12-16T13:40:03;5.22;;;1.20;;
48516;SDS011;34310;51.904;4.256;2022-12-16T13:43:39;4.63;;;1.50;;
48516;SDS011;34310;51.904;4.256;2022-12-16T13:46:53;4.20;;;1.58;;
48516;SDS011;34310;51.904;4.256;2022-12-16T13:49:47;3.35;;;1.33;;
48516;SDS011;34310;51.904;4.256;2022-12-16T13:52:54;4.60;;;1.65;;
48516;SDS011;34310;51.904;4.256;2022-12-16T13:58:42;2.42;;;1.10;;
48516;SDS011;34310;51.904;4.256;2022-12-16T14:04:36;3.40;;;1.75;;
48516;SDS011;34310;51.904;4.256;2022-12-16T14:07:26;2.65;;;0.98;;
48516;SDS011;34310;51.904;4.256;2022-12-16T14:10:34;4.40;;;1.20;;
48516;SDS011;34310;51.904;4.256;2022-12-16T14:13:32;2.90;;;1.50;;
48516;SDS011;34310;51.904;4.256;2022-12-16T14:16:50;5.10;;;1.30;;
48516;SDS011;34310;51.904;4.256;2022-12-16T14:26:19;2.60;;;1.05;;
48516;SDS011;34310;51.904;4.256;2022-12-16T14:32:28;2.35;;;1.10;;
48516;SDS011;34310;51.904;4.256;2022-12-16T14:38:11;2.05;;;1.10;;
48516;SDS011;34310;51.904;4.256;2022-12-16T14:40:58;1.52;;;1.20;;
48516;SDS011;34310;51.904;4.256;2022-12-16T14:43:43;1.50;;;1.05;;
48516;SDS011;34310;51.904;4.256;2022-12-16T14:46:30;2.20;;;1.20;;
48516;SDS011;34310;51.904;4.256;2022-12-16T14:49:20;1.73;;;1.08;;
48516;SDS011;34310;51.904;4.256;2022-12-16T14:52:18;3.15;;;1.40;;
48516;SDS011;34310;51.904;4.256;2022-12-16T14:55:32;2.30;;;1.40;;
48516;SDS011;34310;51.904;4.256;2022-12-16T14:58:20;2.17;;;1.20;;
48516;SDS011;34310;51.904;4.256;2022-12-16T15:04:04;5.57;;;1.20;;
48516;SDS011;34310;51.904;4.256;2022-12-16T15:07:05;1.25;;;1.02;;
48516;SDS011;34310;51.904;4.256;2022-12-16T15:09:57;2.25;;;1.20;;
48516;SDS011;34310;51.904;4.256;2022-12-16T15:13:04;1.95;;;1.20;;
48516;SDS011;34310;51.904;4.256;2022-12-16T15:15:54;2.70;;;1.00;;
48516;SDS011;34310;51.904;4.256;2022-12-16T15:18:42;2.63;;;1.20;;
48516;SDS011;34310;51.904;4.256;2022-12-16T15:21:33;8.63;;;1.60;;
48516;SDS011;34310;51.904;4.256;2022-12-16T15:24:22;6.10;;;1.50;;
48516;SDS011;34310;51.904;4.256;2022-12-16T15:27:33;4.13;;;2.20;;
48516;SDS011;34310;51.904;4.256;2022-12-16T15:30:39;7.03;;;1.80;;
48516;SDS011;34310;51.904;4.256;2022-12-16T15:33:31;3.38;;;1.73;;
48516;SDS011;34310;51.904;4.256;2022-12-16T15:42:21;6.50;;;1.60;;
48516;SDS011;34310;51.904;4.256;2022-12-16T15:45:23;3.67;;;1.48;;
48516;SDS011;34310;51.904;4.256;2022-12-16T15:48:25;2.15;;;1.52;;
48516;SDS011;34310;51.904;4.256;2022-12-16T15:54:25;2.60;;;1.58;;
48516;SDS011;34310;51.904;4.256;2022-12-16T15:57:27;2.70;;;1.33;;
48516;SDS011;34310;51.904;4.256;2022-12-16T16:00:25;2.08;;;1.40;;
48516;SDS011;34310;51.904;4.256;2022-12-16T16:03:17;2.60;;;1.30;;
48516;SDS011;34310;51.904;4.256;2022-12-16T16:06:22;2.42;;;1.50;;
48516;SDS011;34310;51.904;4.256;2022-12-16T16:09:11;3.13;;;1.50;;
48516;SDS011;34310;51.904;4.256;2022-12-16T16:12:09;2.10;;;1.40;;
48516;SDS011;34310;51.904;4.256;2022-12-16T16:14:57;1.30;;;1.17;;
48516;SDS011;34310;51.904;4.256;2022-12-16T16:18:00;1.92;;;1.20;;
48516;SDS011;34310;51.904;4.256;2022-12-16T16:20:49;2.40;;;1.52;;
48516;SDS011;34310;51.904;4.256;2022-12-16T16:23:36;2.00;;;1.33;;
48516;SDS011;34310;51.904;4.256;2022-12-16T16:26:24;1.88;;;1.38;;
48516;SDS011;34310;51.904;4.256;2022-12-16T16:29:11;1.85;;;1.35;;
48516;SDS011;34310;51.904;4.256;2022-12-16T16:31:57;2.08;;;1.40;;
48516;SDS011;34310;51.904;4.256;2022-12-16T16:34:45;2.92;;;1.30;;
48516;SDS011;34310;51.904;4.256;2022-12-16T16:37:30;1.70;;;1.48;;
48516;SDS011;34310;51.904;4.256;2022-12-16T16:43:02;2.75;;;1.73;;
48516;SDS011;34310;51.904;4.256;2022-12-16T16:45:51;2.10;;;1.50;;
48516;SDS011;34310;51.904;4.256;2022-12-16T16:48:39;1.75;;;1.50;;
48516;SDS011;34310;51.904;4.256;2022-12-16T16:51:26;2.05;;;1.50;;
48516;SDS011;34310;51.904;4.256;2022-12-16T16:54:12;1.50;;;1.40;;
48516;SDS011;34310;51.904;4.256;2022-12-16T16:56:59;3.15;;;1.60;;
48516;SDS011;34310;51.904;4.256;2022-12-16T16:59:46;1.90;;;1.45;;
48516;SDS011;34310;51.904;4.256;2022-12-16T17:02:31;2.65;;;1.60;;
48516;SDS011;34310;51.904;4.256;2022-12-16T17:05:17;1.60;;;1.33;;
48516;SDS011;34310;51.904;4.256;2022-12-16T17:08:04;4.15;;;1.60;;
48516;SDS011;34310;51.904;4.256;2022-12-16T17:10:50;1.75;;;1.45;;
48516;SDS011;34310;51.904;4.256;2022-12-16T17:13:36;2.03;;;1.48;;
48516;SDS011;34310;51.904;4.256;2022-12-16T17:16:22;1.90;;;1.80;;
48516;SDS011;34310;51.904;4.256;2022-12-16T17:19:08;1.70;;;1.60;;
48516;SDS011;34310;51.904;4.256;2022-12-16T17:21:54;2.20;;;2.00;;
48516;SDS011;34310;51.904;4.256;2022-12-16T17:24:40;2.20;;;2.00;;
48516;SDS011;34310;51.904;4.256;2022-12-16T17:27:26;3.05;;;2.60;;
48516;SDS011;34310;51.904;4.256;2022-12-16T17:30:17;3.08;;;2.53;;
48516;SDS011;34310;51.904;4.256;2022-12-16T17:33:12;3.80;;;2.65;;
48516;SDS011;34310;51.904;4.256;2022-12-16T17:36:00;3.38;;;2.80;;
48516;SDS011;34310;51.904;4.256;2022-12-16T17:38:46;2.80;;;2.22;;
48516;SDS011;34310;51.904;4.256;2022-12-16T17:41:32;2.25;;;1.95;;
48516;SDS011;34310;51.904;4.256;2022-12-16T17:44:19;2.92;;;2.33;;
48516;SDS011;34310;51.904;4.256;2022-12-16T17:47:05;2.65;;;2.00;;
48516;SDS011;34310;51.904;4.256;2022-12-16T17:49:50;3.83;;;2.30;;
48516;SDS011;34310;51.904;4.256;2022-12-16T17:52:37;3.20;;;2.40;;
48516;SDS011;34310;51.904;4.256;2022-12-16T17:55:23;2.75;;;2.13;;
48516;SDS011;34310;51.904;4.256;2022-12-16T17:58:08;2.25;;;2.05;;
48516;SDS011;34310;51.904;4.256;2022-12-16T18:01:00;4.70;;;2.50;;
48516;SDS011;34310;51.904;4.256;2022-12-16T18:03:47;4.00;;;2.70;;
48516;SDS011;34310;51.904;4.256;2022-12-16T18:06:33;4.70;;;3.28;;
48516;SDS011;34310;51.904;4.256;2022-12-16T18:09:20;3.70;;;3.03;;
48516;SDS011;34310;51.904;4.256;2022-12-16T18:12:06;4.55;;;3.75;;
48516;SDS011;34310;51.904;4.256;2022-12-16T18:14:51;4.63;;;3.53;;
48516;SDS011;34310;51.904;4.256;2022-12-16T18:17:37;5.13;;;3.95;;
48516;SDS011;34310;51.904;4.256;2022-12-16T18:20:23;6.30;;;4.80;;
48516;SDS011;34310;51.904;4.256;2022-12-16T18:23:09;5.45;;;4.40;;
48516;SDS011;34310;51.904;4.256;2022-12-16T18:25:59;6.57;;;5.00;;
48516;SDS011;34310;51.904;4.256;2022-12-16T18:28:46;8.02;;;5.70;;
48516;SDS011;34310;51.904;4.256;2022-12-16T18:31:32;7.47;;;5.50;;
48516;SDS011;34310;51.904;4.256;2022-12-16T18:34:19;6.57;;;5.35;;
48516;SDS011;34310;51.904;4.256;2022-12-16T18:37:05;6.90;;;5.13;;
48516;SDS011;34310;51.904;4.256;2022-12-16T18:39:51;8.85;;;5.70;;
48516;SDS011;34310;51.904;4.256;2022-12-16T18:42:37;8.13;;;5.75;;
48516;SDS011;34310;51.904;4.256;2022-12-16T18:45:23;7.60;;;6.15;;
48516;SDS011;34310;51.904;4.256;2022-12-16T18:48:09;8.45;;;5.95;;
48516;SDS011;34310;51.904;4.256;2022-12-16T18:50:56;10.38;;;6.90;;
48516;SDS011;34310;51.904;4.256;2022-12-16T18:53:43;9.43;;;6.75;;
48516;SDS011;34310;51.904;4.256;2022-12-16T18:56:29;10.20;;;6.70;;
48516;SDS011;34310;51.904;4.256;2022-12-16T18:59:15;8.70;;;6.60;;
48516;SDS011;34310;51.904;4.256;2022-12-16T19:02:01;11.82;;;6.95;;
48516;SDS011;34310;51.904;4.256;2022-12-16T19:04:47;9.95;;;7.22;;
48516;SDS011;34310;51.904;4.256;2022-12-16T19:07:32;8.98;;;6.85;;
48516;SDS011;34310;51.904;4.256;2022-12-16T19:10:18;9.07;;;7.30;;
48516;SDS011;34310;51.904;4.256;2022-12-16T19:13:04;11.18;;;7.75;;
48516;SDS011;34310;51.904;4.256;2022-12-16T19:15:54;10.43;;;7.63;;
48516;SDS011;34310;51.904;4.256;2022-12-16T19:18:41;10.43;;;7.93;;
48516;SDS011;34310;51.904;4.256;2022-12-16T19:21:27;10.27;;;7.43;;
48516;SDS011;34310;51.904;4.256;2022-12-16T19:24:34;13.35;;;8.40;;
48516;SDS011;34310;51.904;4.256;2022-12-16T19:27:40;10.80;;;8.07;;
48516;SDS011;34310;51.904;4.256;2022-12-16T19:30:26;12.18;;;8.43;;
48516;SDS011;34310;51.904;4.256;2022-12-16T19:33:12;13.32;;;9.00;;
48516;SDS011;34310;51.904;4.256;2022-12-16T19:35:58;16.50;;;9.45;;
48516;SDS011;34310;51.904;4.256;2022-12-16T19:38:44;12.05;;;9.40;;
48516;SDS011;34310;51.904;4.256;2022-12-16T19:41:30;12.93;;;9.77;;
48516;SDS011;34310;51.904;4.256;2022-12-16T19:44:16;12.75;;;8.15;;
48516;SDS011;34310;51.904;4.256;2022-12-16T19:47:02;11.80;;;8.00;;
48516;SDS011;34310;51.904;4.256;2022-12-16T19:49:48;9.95;;;7.95;;
48516;SDS011;34310;51.904;4.256;2022-12-16T19:52:34;9.27;;;7.40;;
48516;SDS011;34310;51.904;4.256;2022-12-16T19:55:21;10.40;;;7.80;;
48516;SDS011;34310;51.904;4.256;2022-12-16T19:58:07;10.63;;;8.00;;
48516;SDS011;34310;51.904;4.256;2022-12-16T20:00:52;12.68;;;9.10;;
48516;SDS011;34310;51.904;4.256;2022-12-16T20:03:39;11.45;;;8.68;;
48516;SDS011;34310;51.904;4.256;2022-12-16T20:06:24;13.05;;;9.13;;
48516;SDS011;34310;51.904;4.256;2022-12-16T20:09:24;10.50;;;8.07;;
48516;SDS011;34310;51.904;4.256;2022-12-16T20:12:10;12.52;;;9.15;;
48516;SDS011;34310;51.904;4.256;2022-12-16T20:14:56;12.13;;;9.00;;
48516;SDS011;34310;51.904;4.256;2022-12-16T20:17:42;11.82;;;8.98;;
48516;SDS011;34310;51.904;4.256;2022-12-16T20:20:29;12.07;;;9.38;;
48516;SDS011;34310;51.904;4.256;2022-12-16T20:23:17;12.23;;;9.65;;
48516;SDS011;34310;51.904;4.256;2022-12-16T20:26:02;12.02;;;10.43;;
48516;SDS011;34310;51.904;4.256;2022-12-16T20:28:48;14.02;;;10.10;;
48516;SDS011;34310;51.904;4.256;2022-12-16T20:31:34;12.50;;;9.90;;
48516;SDS011;34310;51.904;4.256;2022-12-16T20:34:21;12.45;;;9.80;;
48516;SDS011;34310;51.904;4.256;2022-12-16T20:37:07;11.05;;;8.88;;
48516;SDS011;34310;51.904;4.256;2022-12-16T20:39:53;12.60;;;10.13;;
48516;SDS011;34310;51.904;4.256;2022-12-16T20:42:39;11.90;;;9.98;;
48516;SDS011;34310;51.904;4.256;2022-12-16T20:45:25;12.52;;;10.15;;
48516;SDS011;34310;51.904;4.256;2022-12-16T20:48:14;12.40;;;10.20;;
48516;SDS011;34310;51.904;4.256;2022-12-16T20:51:02;13.40;;;10.55;;
48516;SDS011;34310;51.904;4.256;2022-12-16T20:53:52;13.90;;;10.80;;
48516;SDS011;34310;51.904;4.256;2022-12-16T20:56:38;11.70;;;9.85;;
48516;SDS011;34310;51.904;4.256;2022-12-16T20:59:24;12.57;;;10.13;;
48516;SDS011;34310;51.904;4.256;2022-12-16T21:02:13;13.98;;;11.57;;
48516;SDS011;34310;51.904;4.256;2022-12-16T21:05:18;13.25;;;10.32;;
48516;SDS011;34310;51.904;4.256;2022-12-16T21:08:04;12.90;;;10.13;;